createdAt,value
2018-09-23T00:02:19.829Z,93.70
2018-09-23T00:04:48.279Z,94.50
2018-09-23T00:09:51.499Z,94.70
2018-09-23T00:12:20.059Z,94.30
2018-09-23T00:14:48.496Z,94.80
2018-09-23T00:17:16.926Z,95.20
2018-09-23T00:19:45.377Z,95.60
2018-09-23T00:22:13.891Z,95.90
2018-09-23T00:24:42.248Z,96.20
2018-09-23T00:27:10.721Z,96.30
2018-09-23T00:29:44.530Z,96.40
2018-09-23T00:32:12.936Z,96.30
2018-09-23T00:34:41.368Z,95.60
2018-09-23T00:37:09.801Z,95.60
2018-09-23T00:39:38.354Z,95.50
2018-09-23T00:42:06.945Z,94.70
2018-09-23T00:44:35.377Z,94.70
2018-09-23T00:47:03.771Z,94.60
2018-09-23T00:49:32.208Z,94.40
2018-09-23T00:52:00.603Z,94.60
2018-09-23T00:54:28.990Z,95.20
2018-09-23T00:56:57.614Z,95.00
2018-09-23T00:59:26.233Z,95.00
2018-09-23T01:01:54.705Z,95.10
2018-09-23T01:04:23.284Z,95.00
2018-09-23T01:06:51.748Z,95.10
2018-09-23T01:09:20.156Z,95.10
2018-09-23T01:11:48.743Z,95.50
2018-09-23T01:14:17.109Z,95.40
2018-09-23T01:16:45.570Z,95.10
2018-09-23T01:19:13.984Z,95.00
2018-09-23T01:21:42.520Z,95.20
2018-09-23T01:24:10.912Z,96.20
2018-09-23T01:26:39.293Z,95.40
2018-09-23T01:29:07.737Z,95.10
2018-09-23T01:31:36.341Z,94.90
2018-09-23T01:34:04.848Z,95.00
2018-09-23T01:36:33.287Z,95.30
2018-09-23T01:39:01.692Z,95.00
2018-09-23T01:41:30.080Z,95.40
2018-09-23T01:43:58.613Z,95.40
2018-09-23T01:46:27.071Z,95.90
2018-09-23T01:48:55.713Z,96.50
2018-09-23T01:51:24.312Z,95.40
2018-09-23T01:53:52.938Z,95.80
2018-09-23T01:56:21.537Z,95.80
2018-09-23T01:58:49.989Z,95.50
2018-09-23T02:01:18.453Z,96.30
2018-09-23T02:03:46.906Z,96.60
2018-09-23T02:06:15.284Z,96.40
2018-09-23T02:08:43.796Z,96.80
2018-09-23T02:11:12.213Z,97.10
2018-09-23T02:13:40.577Z,97.20
2018-09-23T02:16:08.982Z,96.70
2018-09-23T02:18:37.384Z,97.30
2018-09-23T02:21:06.157Z,97.60
2018-09-23T02:23:34.539Z,97.30
2018-09-23T02:26:02.969Z,97.60
2018-09-23T02:28:31.462Z,97.60
2018-09-23T02:30:59.870Z,97.70
2018-09-23T02:33:28.451Z,98.20
2018-09-23T02:35:56.948Z,97.90
2018-09-23T02:38:25.488Z,98.00
2018-09-23T02:40:54.088Z,97.90
2018-09-23T02:43:22.594Z,98.70
2018-09-23T02:45:51.593Z,98.70
2018-09-23T02:48:20.108Z,99.30
2018-09-23T02:50:48.576Z,99.50
2018-09-23T02:53:16.952Z,99.10
2018-09-23T02:55:46.074Z,99.30
2018-09-23T02:58:14.502Z,98.90
2018-09-23T03:00:42.985Z,98.90
2018-09-23T03:03:11.407Z,99.10
2018-09-23T03:05:39.840Z,99.00
2018-09-23T03:08:08.260Z,99.50
2018-09-23T03:10:37.316Z,99.40
2018-09-23T03:13:05.832Z,99.50
2018-09-23T03:15:34.426Z,99.70
2018-09-23T03:18:02.852Z,99.70
2018-09-23T03:20:31.352Z,99.90
2018-09-23T03:22:59.823Z,99.90
2018-09-23T03:25:28.336Z,99.90
2018-09-23T03:27:56.877Z,99.90
2018-09-23T03:30:25.404Z,99.90
2018-09-23T03:32:53.912Z,99.90
2018-09-23T03:35:22.402Z,99.90
2018-09-23T03:37:51.054Z,99.90
2018-09-23T03:40:19.523Z,99.90
2018-09-23T03:42:48.080Z,99.90
2018-09-23T03:45:16.566Z,99.90
2018-09-23T03:47:45.008Z,99.90
2018-09-23T03:50:13.413Z,99.90
2018-09-23T03:52:41.908Z,99.90
2018-09-23T03:55:10.304Z,99.90
2018-09-23T03:57:38.689Z,99.90
2018-09-23T04:00:07.124Z,99.90
2018-09-23T04:02:35.605Z,99.90
2018-09-23T04:05:03.993Z,99.90
2018-09-23T04:07:32.606Z,99.90
2018-09-23T04:10:01.006Z,99.90
2018-09-23T04:12:29.477Z,99.90
2018-09-23T04:14:57.992Z,99.90
2018-09-23T04:17:26.509Z,99.90
2018-09-23T04:19:54.989Z,99.90
2018-09-23T04:22:23.626Z,99.90
2018-09-23T04:24:52.093Z,99.90
2018-09-23T04:27:20.676Z,99.90
2018-09-23T04:29:49.184Z,99.90
2018-09-23T04:32:17.642Z,99.90
2018-09-23T04:34:46.113Z,99.90
2018-09-23T04:37:14.554Z,99.90
2018-09-23T04:39:42.923Z,99.90
2018-09-23T04:42:11.365Z,99.90
2018-09-23T04:44:40.744Z,99.90
2018-09-23T04:47:09.222Z,99.90
2018-09-23T04:49:37.607Z,99.90
2018-09-23T04:52:06.045Z,99.90
2018-09-23T04:54:34.483Z,99.90
2018-09-23T04:57:03.205Z,99.90
2018-09-23T04:59:31.648Z,99.90
2018-09-23T05:02:00.072Z,99.90
2018-09-23T05:04:28.581Z,99.90
2018-09-23T05:06:57.116Z,99.90
2018-09-23T05:09:25.691Z,99.90
2018-09-23T05:11:54.233Z,99.90
2018-09-23T05:14:22.741Z,99.90
2018-09-23T05:16:51.216Z,99.90
2018-09-23T05:19:19.799Z,99.90
2018-09-23T05:21:48.311Z,99.90
2018-09-23T05:24:16.841Z,99.90
2018-09-23T05:26:45.466Z,99.90
2018-09-23T05:29:13.892Z,99.90
2018-09-23T05:31:42.367Z,99.90
2018-09-23T05:34:10.822Z,99.90
2018-09-23T05:36:39.387Z,99.90
2018-09-23T05:39:09.225Z,99.90
2018-09-23T05:41:37.729Z,99.90
2018-09-23T05:44:06.469Z,99.90
2018-09-23T05:46:35.157Z,99.90
2018-09-23T05:49:03.588Z,99.90
2018-09-23T05:51:33.315Z,99.90
2018-09-23T05:54:01.842Z,99.90
2018-09-23T05:56:31.605Z,99.90
2018-09-23T05:59:00.010Z,99.90
2018-09-23T06:01:28.501Z,99.90
2018-09-23T06:03:57.091Z,99.90
2018-09-23T06:06:25.673Z,99.90
2018-09-23T06:08:54.293Z,99.90
2018-09-23T06:11:22.857Z,99.90
2018-09-23T06:13:51.291Z,99.90
2018-09-23T06:16:19.895Z,99.90
2018-09-23T06:18:48.384Z,99.90
2018-09-23T06:21:17.589Z,99.90
2018-09-23T06:23:46.474Z,99.90
2018-09-23T06:26:14.898Z,99.90
2018-09-23T06:28:43.301Z,99.90
2018-09-23T06:31:11.933Z,99.90
2018-09-23T06:33:40.368Z,99.90
2018-09-23T06:36:08.748Z,99.90
2018-09-23T06:38:37.232Z,99.90
2018-09-23T06:41:05.814Z,99.90
2018-09-23T06:43:35.932Z,99.90
2018-09-23T06:46:04.498Z,99.90
2018-09-23T06:48:37.052Z,99.90
2018-09-23T06:51:05.871Z,99.90
2018-09-23T06:53:35.157Z,99.90
2018-09-23T06:56:03.574Z,99.90
2018-09-23T06:58:31.984Z,99.90
2018-09-23T07:01:00.361Z,99.90
2018-09-23T07:03:29.519Z,99.90
2018-09-23T07:05:58.093Z,99.90
2018-09-23T07:08:26.664Z,99.90
2018-09-23T07:10:55.185Z,99.90
2018-09-23T07:13:23.819Z,99.90
2018-09-23T07:15:52.881Z,99.90
2018-09-23T07:18:22.310Z,99.90
2018-09-23T07:20:50.804Z,99.90
2018-09-23T07:23:19.345Z,99.90
2018-09-23T07:25:50.765Z,99.90
2018-09-23T07:28:19.194Z,99.90
2018-09-23T07:30:49.103Z,99.90
2018-09-23T07:33:17.910Z,99.90
2018-09-23T07:35:46.879Z,99.90
2018-09-23T07:38:16.408Z,99.90
2018-09-23T07:40:45.485Z,99.90
2018-09-23T07:43:14.088Z,99.90
2018-09-23T07:45:43.340Z,99.90
2018-09-23T07:48:12.107Z,99.90
2018-09-23T07:50:43.946Z,99.90
2018-09-23T07:53:12.865Z,99.90
2018-09-23T07:55:41.735Z,99.90
2018-09-23T07:58:13.496Z,99.90
2018-09-23T08:00:42.881Z,99.90
2018-09-23T08:03:11.502Z,99.90
2018-09-23T08:05:39.930Z,99.90
2018-09-23T08:08:08.404Z,99.90
2018-09-23T08:10:36.936Z,99.90
2018-09-23T08:13:05.851Z,99.90
2018-09-23T08:15:34.287Z,99.90
2018-09-23T08:18:02.883Z,99.90
2018-09-23T08:20:32.155Z,99.90
2018-09-23T08:23:01.121Z,99.90
2018-09-23T08:25:29.860Z,99.90
2018-09-23T08:27:59.072Z,99.90
2018-09-23T08:30:28.124Z,99.90
2018-09-23T08:32:56.760Z,99.90
2018-09-23T08:35:25.222Z,99.90
2018-09-23T08:37:54.283Z,99.90
2018-09-23T08:40:23.277Z,99.90
2018-09-23T08:42:51.899Z,99.90
2018-09-23T08:45:20.336Z,99.90
2018-09-23T08:47:48.872Z,99.90
2018-09-23T08:50:17.329Z,99.90
2018-09-23T08:52:46.896Z,99.90
2018-09-23T08:55:15.485Z,99.90
2018-09-23T08:57:44.205Z,99.90
2018-09-23T09:00:14.048Z,99.90
2018-09-23T09:02:42.537Z,99.90
2018-09-23T09:05:10.974Z,99.90
2018-09-23T09:07:39.438Z,99.90
2018-09-23T09:10:07.991Z,99.90
2018-09-23T09:12:36.890Z,99.90
2018-09-23T09:15:05.513Z,99.90
2018-09-23T09:17:37.662Z,99.90
2018-09-23T09:20:06.753Z,99.90
2018-09-23T09:22:35.772Z,99.90
2018-09-23T09:25:04.642Z,99.90
2018-09-23T09:27:33.164Z,99.90
2018-09-23T09:30:01.575Z,99.90
2018-09-23T09:32:30.123Z,99.90
2018-09-23T09:35:00.594Z,99.90
2018-09-23T09:37:29.599Z,99.90
2018-09-23T09:39:59.366Z,99.90
2018-09-23T09:42:29.845Z,99.90
2018-09-23T09:44:59.841Z,99.90
2018-09-23T09:47:29.296Z,99.90
2018-09-23T09:49:57.804Z,99.90
2018-09-23T09:52:26.324Z,99.90
2018-09-23T09:54:55.090Z,99.90
2018-09-23T09:57:24.048Z,99.90
2018-09-23T09:59:52.806Z,99.90
2018-09-23T10:02:21.498Z,99.90
2018-09-23T10:04:50.065Z,99.90
2018-09-23T10:07:18.493Z,99.90
2018-09-23T10:09:47.072Z,99.90
2018-09-23T10:12:15.517Z,99.90
2018-09-23T10:14:44.002Z,99.90
2018-09-23T10:17:12.507Z,99.90
2018-09-23T10:19:41.230Z,99.90
2018-09-23T10:22:09.685Z,99.90
2018-09-23T10:24:38.107Z,99.90
2018-09-23T10:27:07.685Z,99.90
2018-09-23T10:29:36.155Z,99.90
2018-09-23T10:32:04.668Z,99.90
2018-09-23T10:34:33.055Z,99.90
2018-09-23T10:37:01.565Z,99.90
2018-09-23T10:39:30.417Z,99.90
2018-09-23T10:41:58.900Z,99.90
2018-09-23T10:44:28.620Z,99.90
2018-09-23T10:46:57.219Z,99.90
2018-09-23T10:49:25.660Z,99.90
2018-09-23T10:51:54.280Z,99.90
2018-09-23T10:54:22.795Z,99.90
2018-09-23T10:56:51.242Z,99.90
2018-09-23T10:59:19.694Z,99.90
2018-09-23T11:01:48.654Z,99.90
2018-09-23T11:04:17.188Z,99.90
2018-09-23T11:06:45.604Z,99.90
2018-09-23T11:09:14.137Z,99.90
2018-09-23T11:11:42.716Z,99.90
2018-09-23T11:14:11.708Z,99.90
2018-09-23T11:16:40.318Z,99.90
2018-09-23T11:19:08.855Z,99.90
2018-09-23T11:21:37.358Z,99.90
2018-09-23T11:24:06.169Z,99.90
2018-09-23T11:26:35.073Z,99.90
2018-09-23T11:29:03.736Z,99.90
2018-09-23T11:31:32.274Z,99.90
2018-09-23T11:34:02.625Z,99.90
2018-09-23T11:36:31.156Z,99.90
2018-09-23T11:38:59.740Z,99.90
2018-09-23T11:41:28.817Z,99.90
2018-09-23T11:43:57.389Z,99.90
2018-09-23T11:46:26.068Z,99.90
2018-09-23T11:48:54.756Z,99.90
2018-09-23T11:51:24.941Z,99.90
2018-09-23T11:53:53.605Z,99.90
2018-09-23T11:56:22.051Z,99.90
2018-09-23T11:58:50.571Z,99.90
2018-09-23T12:01:19.602Z,99.90
2018-09-23T12:03:48.045Z,99.90
2018-09-23T12:06:16.578Z,99.90
2018-09-23T12:08:45.013Z,99.90
2018-09-23T12:11:13.503Z,99.90
2018-09-23T12:13:41.901Z,99.90
2018-09-23T12:16:10.361Z,99.90
2018-09-23T12:18:38.778Z,99.90
2018-09-23T12:21:07.290Z,99.90
2018-09-23T12:23:35.747Z,99.90
2018-09-23T12:26:04.166Z,99.90
2018-09-23T12:28:32.631Z,99.90
2018-09-23T12:31:01.085Z,99.90
2018-09-23T12:33:29.874Z,99.90
2018-09-23T12:36:03.605Z,99.90
2018-09-23T12:38:34.668Z,99.90
2018-09-23T12:41:03.410Z,99.90
2018-09-23T12:43:31.838Z,99.90
2018-09-23T12:46:00.321Z,99.90
2018-09-23T12:48:29.279Z,99.90
2018-09-23T12:50:58.088Z,99.90
2018-09-23T12:53:26.818Z,99.90
2018-09-23T12:55:55.379Z,99.90
2018-09-23T12:58:24.090Z,99.90
2018-09-23T13:00:53.274Z,99.90
2018-09-23T13:03:21.808Z,99.90
2018-09-23T13:05:50.245Z,99.90
2018-09-23T13:08:19.143Z,99.90
2018-09-23T13:10:47.743Z,99.90
2018-09-23T13:13:16.164Z,99.90
2018-09-23T13:15:44.615Z,99.90
2018-09-23T13:18:13.241Z,99.90
2018-09-23T13:20:41.624Z,99.90
2018-09-23T13:23:10.155Z,99.90
2018-09-23T13:25:39.100Z,99.90
2018-09-23T13:28:07.634Z,99.90
2018-09-23T13:30:36.230Z,99.90
2018-09-23T13:33:04.671Z,99.90
2018-09-23T13:35:33.144Z,99.90
2018-09-23T13:38:01.705Z,99.90
2018-09-23T13:40:31.285Z,99.90
2018-09-23T13:42:59.700Z,99.90
2018-09-23T13:45:28.496Z,99.90
2018-09-23T13:47:57.467Z,99.90
2018-09-23T13:50:27.033Z,99.90
2018-09-23T13:52:55.988Z,99.90
2018-09-23T13:55:25.120Z,99.90
2018-09-23T13:57:54.308Z,99.90
2018-09-23T14:00:23.023Z,99.90
2018-09-23T14:02:51.952Z,99.90
2018-09-23T14:05:20.345Z,99.90
2018-09-23T14:07:48.747Z,99.90
2018-09-23T14:10:17.197Z,99.90
2018-09-23T14:12:46.240Z,99.90
2018-09-23T14:15:14.683Z,99.90
2018-09-23T14:17:43.066Z,99.90
2018-09-23T14:20:11.634Z,99.90
2018-09-23T14:22:40.181Z,99.90
2018-09-23T14:25:08.734Z,99.90
2018-09-23T14:27:37.239Z,99.90
2018-09-23T14:30:05.765Z,99.90
2018-09-23T14:32:34.199Z,99.90
2018-09-23T14:35:02.715Z,99.90
2018-09-23T14:37:31.169Z,99.90
2018-09-23T14:39:59.645Z,99.90
2018-09-23T14:42:28.215Z,99.90
2018-09-23T14:44:56.756Z,99.90
2018-09-23T14:47:25.202Z,99.90
2018-09-23T14:49:53.873Z,99.90
2018-09-23T14:52:22.443Z,99.90
2018-09-23T14:54:51.046Z,99.90
2018-09-23T14:57:19.434Z,99.90
2018-09-23T14:59:47.881Z,99.90
2018-09-23T15:02:16.365Z,99.90
2018-09-23T15:04:44.807Z,99.90
2018-09-23T15:07:13.323Z,99.90
2018-09-23T15:09:41.906Z,99.90
2018-09-23T15:12:10.542Z,99.90
2018-09-23T15:14:39.097Z,99.90
2018-09-23T15:17:07.524Z,99.90
2018-09-23T15:19:36.057Z,99.90
2018-09-23T15:22:04.565Z,99.90
2018-09-23T15:24:33.117Z,99.90
2018-09-23T15:27:01.650Z,99.90
2018-09-23T15:29:30.177Z,99.90
2018-09-23T15:31:58.718Z,99.90
2018-09-23T15:34:27.148Z,99.90
2018-09-23T15:36:55.650Z,99.90
2018-09-23T15:39:24.370Z,99.90
2018-09-23T15:41:52.893Z,99.90
2018-09-23T15:44:21.374Z,99.90
2018-09-23T15:46:49.868Z,99.90
2018-09-23T15:49:18.302Z,99.90
2018-09-23T15:51:46.867Z,99.90
2018-09-23T15:54:15.309Z,99.90
2018-09-23T15:56:43.873Z,99.90
2018-09-23T15:59:12.369Z,99.90
2018-09-23T16:01:40.868Z,99.90
2018-09-23T16:04:09.376Z,99.90
2018-09-23T16:06:37.869Z,99.90
2018-09-23T16:09:07.982Z,99.90
2018-09-23T16:11:36.595Z,99.90
2018-09-23T16:14:05.484Z,99.90
2018-09-23T16:16:34.073Z,99.90
2018-09-23T16:19:02.768Z,99.90
2018-09-23T16:21:31.477Z,99.90
2018-09-23T16:24:00.138Z,99.90
2018-09-23T16:26:28.708Z,99.90
2018-09-23T16:28:57.391Z,99.90
2018-09-23T16:31:25.953Z,99.90
2018-09-23T16:33:54.632Z,99.90
2018-09-23T16:36:23.492Z,99.90
2018-09-23T16:38:52.209Z,99.90
2018-09-23T16:41:20.725Z,99.90
2018-09-23T16:43:49.188Z,99.90
2018-09-23T16:46:17.747Z,99.90
2018-09-23T16:48:46.315Z,99.90
2018-09-23T16:51:14.748Z,99.90
2018-09-23T16:53:43.288Z,99.70
2018-09-23T16:56:11.717Z,98.70
2018-09-23T16:58:40.261Z,98.80
2018-09-23T17:01:08.763Z,98.10
2018-09-23T17:03:37.339Z,98.60
2018-09-23T17:06:06.007Z,97.80
2018-09-23T17:08:34.419Z,97.10
2018-09-23T17:11:02.883Z,95.90
2018-09-23T17:13:31.483Z,95.20
2018-09-23T17:16:00.159Z,96.10
2018-09-23T17:18:28.683Z,95.00
2018-09-23T17:20:57.247Z,95.60
2018-09-23T17:23:25.848Z,95.10
2018-09-23T17:25:54.524Z,95.40
2018-09-23T17:28:23.464Z,94.30
2018-09-23T17:30:51.878Z,94.20
2018-09-23T17:33:20.358Z,94.60
2018-09-23T17:35:48.853Z,94.80
2018-09-23T17:38:17.380Z,94.60
2018-09-23T17:40:45.985Z,94.50
2018-09-23T17:43:14.321Z,94.60
2018-09-23T17:45:43.394Z,94.00
2018-09-23T17:48:15.007Z,94.10
2018-09-23T17:50:43.489Z,93.90
2018-09-23T17:53:11.899Z,93.60
2018-09-23T17:55:40.412Z,93.70
2018-09-23T17:58:08.786Z,93.70
2018-09-23T18:00:40.146Z,93.50
2018-09-23T18:03:09.032Z,93.40
2018-09-23T18:05:38.789Z,94.90
2018-09-23T18:08:07.641Z,95.50
2018-09-23T18:10:36.112Z,95.40
2018-09-23T18:13:04.692Z,94.90
2018-09-23T18:15:33.748Z,94.80
2018-09-23T18:18:02.873Z,95.30
2018-09-23T18:20:31.472Z,95.70
2018-09-23T18:23:00.228Z,95.80
2018-09-23T18:25:29.971Z,95.80
2018-09-23T18:27:59.182Z,96.10
2018-09-23T18:30:30.160Z,96.10
2018-09-23T18:32:59.551Z,96.40
2018-09-23T18:35:29.352Z,95.80
2018-09-23T18:38:00.303Z,95.70
2018-09-23T18:40:30.995Z,94.90
2018-09-23T18:42:59.678Z,94.90
2018-09-23T18:45:29.742Z,94.20
2018-09-23T18:47:58.944Z,93.80
2018-09-23T18:50:27.485Z,93.80
2018-09-23T18:53:01.628Z,93.30
2018-09-23T18:55:35.648Z,93.40
2018-09-23T18:58:04.317Z,93.70
2018-09-23T19:00:32.884Z,93.80
2018-09-23T19:03:01.939Z,93.40
2018-09-23T19:05:30.580Z,92.90
2018-09-23T19:07:59.961Z,92.20
2018-09-23T19:10:29.552Z,92.40
2018-09-23T19:13:03.590Z,92.30
2018-09-23T19:15:33.294Z,93.00
2018-09-23T19:18:02.089Z,92.50
2018-09-23T19:20:31.037Z,92.50
2018-09-23T19:23:05.288Z,92.20
2018-09-23T19:25:34.349Z,92.20
2018-09-23T19:28:02.999Z,92.10
2018-09-23T19:30:32.336Z,92.20
2018-09-23T19:33:01.066Z,92.90
2018-09-23T19:35:29.842Z,92.30
2018-09-23T19:37:58.530Z,92.00
2018-09-23T19:40:27.416Z,91.70
2018-09-23T19:42:55.990Z,91.20
2018-09-23T19:45:24.657Z,91.00
2018-09-23T19:47:53.388Z,90.60
2018-09-23T19:50:22.360Z,91.10
2018-09-23T19:52:51.967Z,91.00
2018-09-23T19:55:20.690Z,91.10
2018-09-23T19:57:49.451Z,91.40
2018-09-23T20:00:18.171Z,91.00
2018-09-23T20:02:46.673Z,90.90
2018-09-23T20:05:15.106Z,90.70
2018-09-23T20:07:43.601Z,91.00
2018-09-23T20:10:12.156Z,90.40
2018-09-23T20:12:40.709Z,90.50
2018-09-23T20:15:15.512Z,90.80
2018-09-23T20:17:44.822Z,91.10
2018-09-23T20:20:13.332Z,90.60
2018-09-23T20:22:41.774Z,90.90
2018-09-23T20:25:10.922Z,90.90
2018-09-23T20:27:39.730Z,90.80
2018-09-23T20:30:08.441Z,90.70
2018-09-23T20:32:37.313Z,90.90
2018-09-23T20:35:06.887Z,90.90
2018-09-23T20:37:35.848Z,91.00
2018-09-23T20:40:04.473Z,90.40
2018-09-23T20:42:32.927Z,89.40
2018-09-23T20:45:01.871Z,89.70
2018-09-23T20:47:30.459Z,89.20
2018-09-23T20:49:59.026Z,89.70
2018-09-23T20:52:27.623Z,89.80
2018-09-23T20:54:56.225Z,89.10
2018-09-23T20:57:24.832Z,89.30
2018-09-23T20:59:53.383Z,89.40
2018-09-23T21:02:22.591Z,90.00
2018-09-23T21:04:51.396Z,90.00
2018-09-23T21:07:20.088Z,90.30
2018-09-23T21:09:48.846Z,89.30
2018-09-23T21:12:17.329Z,89.50
2018-09-23T21:14:45.789Z,89.30
2018-09-23T21:17:14.248Z,90.20
2018-09-23T21:19:42.687Z,90.00
2018-09-23T21:22:11.164Z,90.20
2018-09-23T21:24:39.706Z,90.20
2018-09-23T21:27:08.249Z,90.50
2018-09-23T21:29:36.889Z,90.30
2018-09-23T21:32:05.508Z,90.50
2018-09-23T21:34:33.957Z,90.60
2018-09-23T21:37:02.461Z,90.50
2018-09-23T21:39:30.881Z,90.40
2018-09-23T21:41:59.341Z,90.50
2018-09-23T21:44:27.845Z,90.60
2018-09-23T21:46:56.559Z,90.60
2018-09-23T21:49:25.409Z,90.70
2018-09-23T21:51:53.966Z,90.50
2018-09-23T21:54:23.045Z,90.50
2018-09-23T21:56:51.628Z,90.40
2018-09-23T21:59:20.113Z,90.70
2018-09-23T22:01:48.745Z,90.40
2018-09-23T22:04:17.193Z,90.40
2018-09-23T22:06:45.787Z,90.20
2018-09-23T22:09:14.269Z,90.20
2018-09-23T22:11:42.925Z,90.20
2018-09-23T22:14:11.483Z,90.30
2018-09-23T22:16:39.955Z,90.40
2018-09-23T22:19:08.439Z,90.40
2018-09-23T22:21:36.963Z,90.40
2018-09-23T22:24:05.392Z,90.50
2018-09-23T22:26:34.006Z,90.50
2018-09-23T22:29:02.436Z,90.40
2018-09-23T22:31:30.967Z,90.30
2018-09-23T22:33:59.481Z,90.60
2018-09-23T22:36:28.138Z,90.70
2018-09-23T22:38:56.701Z,90.70
2018-09-23T22:41:25.236Z,90.70
2018-09-23T22:43:53.817Z,90.80
2018-09-23T22:46:22.444Z,90.70
2018-09-23T22:48:51.027Z,90.60
2018-09-23T22:51:19.476Z,90.80
2018-09-23T22:53:47.967Z,90.60
2018-09-23T22:56:17.015Z,90.60
2018-09-23T22:58:45.536Z,90.80
2018-09-23T23:01:14.013Z,90.90
2018-09-23T23:03:42.659Z,90.80
2018-09-23T23:06:11.080Z,90.80
2018-09-23T23:08:39.624Z,90.60
2018-09-23T23:11:08.059Z,90.80
2018-09-23T23:13:36.581Z,90.70
2018-09-23T23:16:05.097Z,90.70
2018-09-23T23:18:33.691Z,90.70
2018-09-23T23:21:02.132Z,90.80
2018-09-23T23:23:30.791Z,90.70
2018-09-23T23:25:59.348Z,90.60
2018-09-23T23:28:27.887Z,90.70
2018-09-23T23:30:56.498Z,90.60
2018-09-23T23:33:25.162Z,90.90
2018-09-23T23:35:53.728Z,91.10
2018-09-23T23:38:22.809Z,91.60
2018-09-23T23:40:51.432Z,91.50
2018-09-23T23:43:20.090Z,91.50
2018-09-23T23:45:48.557Z,91.40
2018-09-23T23:48:17.162Z,91.40
2018-09-23T23:50:45.727Z,91.70
2018-09-23T23:53:14.269Z,91.30
2018-09-23T23:55:42.735Z,91.20
2018-09-23T23:58:11.206Z,91.30
